Polegate, United Kingdom
Current Conditions -  °F | °C
As of 12:20 PM on Wednesday 26 Nov 2014 (Local Time) from EGKA Reporting Station
Drizzle Drizzle  
Wind Chill: 44°   Ceiling: 100
Heat Index: 48°   Visibility: 0.37mi
Dew Point: 48°   Wind: 9mph
Humidity: 100%   Direction: 350°N
Pressure: 29.83"   Gusts: NA
Location:  50.82°N, 0.24°E
Report Text: EGKA 261220Z 35008KT 0600 -DZ FG BKN001 09/09 Q1010
Loading
Personal Weather Stations






























Interactive Weather Map New forecast layout! Learn more

10-Day Weather Forecast

Advertisements
Track Severe Weather on mobile